createdAt,value
2022-07-29T00:02:06.357Z,73.45
2022-07-29T00:04:36.242Z,74.17
2022-07-29T00:07:06.611Z,74.21
2022-07-29T00:09:33.858Z,74.60
2022-07-29T00:12:25.569Z,74.90
2022-07-29T00:14:55.740Z,75.28
2022-07-29T00:17:23.933Z,75.40
2022-07-29T00:19:51.025Z,75.63
2022-07-29T00:22:18.122Z,76.21
2022-07-29T00:24:45.376Z,76.59
2022-07-29T00:27:14.604Z,77.61
2022-07-29T00:29:41.604Z,77.45
2022-07-29T00:32:13.365Z,77.82
2022-07-29T00:34:59.804Z,78.52
2022-07-29T00:37:27.118Z,78.77
2022-07-29T00:39:54.175Z,79.51
2022-07-29T00:42:21.208Z,79.58
2022-07-29T00:44:48.385Z,79.89
2022-07-29T00:47:15.482Z,80.44
2022-07-29T00:49:43.570Z,80.29
2022-07-29T00:52:17.073Z,80.96
2022-07-29T00:54:45.093Z,82.12
2022-07-29T00:57:14.144Z,83.12
2022-07-29T00:59:43.803Z,84.17
2022-07-29T01:02:13.068Z,85.13
2022-07-29T01:04:40.508Z,85.33
2022-07-29T01:07:11.248Z,85.62
2022-07-29T01:09:46.844Z,86.10
2022-07-29T01:12:18.423Z,86.42
2022-07-29T01:14:50.398Z,86.60
2022-07-29T01:17:52.706Z,86.57
2022-07-29T01:20:31.474Z,87.21
2022-07-29T01:23:08.460Z,88.15
2022-07-29T01:26:12.988Z,89.36
2022-07-29T01:28:53.761Z,90.31
2022-07-29T01:31:29.652Z,92.82
2022-07-29T01:34:05.626Z,94.13
2022-07-29T01:36:32.707Z,95.61
2022-07-29T01:39:27.103Z,94.97
2022-07-29T01:42:07.127Z,94.75
2022-07-29T01:44:41.154Z,94.34
2022-07-29T01:47:21.487Z,94.57
2022-07-29T01:49:52.665Z,95.20
2022-07-29T01:52:32.402Z,96.25
2022-07-29T01:55:08.872Z,96.76
2022-07-29T01:57:39.076Z,98.24
2022-07-29T02:00:07.267Z,99.65
2022-07-29T02:02:44.680Z,100.00
2022-07-29T02:05:16.058Z,100.00
2022-07-29T02:07:46.855Z,100.00
2022-07-29T02:10:21.765Z,100.00
2022-07-29T02:12:55.160Z,100.00
2022-07-29T02:15:27.636Z,100.00
2022-07-29T02:18:05.128Z,100.00
2022-07-29T02:20:33.506Z,100.00
2022-07-29T02:23:03.429Z,100.00
2022-07-29T02:25:37.529Z,100.00
2022-07-29T02:28:08.910Z,100.00
2022-07-29T02:30:44.689Z,100.00
2022-07-29T02:33:17.788Z,100.00
2022-07-29T02:35:49.733Z,100.00
2022-07-29T02:38:37.829Z,100.00
2022-07-29T02:41:09.161Z,100.00
2022-07-29T02:43:37.015Z,100.00
2022-07-29T02:46:12.724Z,100.00
2022-07-29T02:49:14.452Z,100.00
2022-07-29T02:51:56.781Z,100.00
2022-07-29T02:54:27.898Z,100.00
2022-07-29T02:56:59.856Z,100.00
2022-07-29T02:59:31.773Z,100.00
2022-07-29T03:02:01.359Z,100.00
2022-07-29T03:04:30.310Z,100.00
2022-07-29T03:07:00.555Z,100.00
2022-07-29T03:09:29.309Z,100.00
2022-07-29T03:11:58.158Z,100.00
2022-07-29T03:14:25.452Z,100.00
2022-07-29T03:16:53.595Z,100.00
2022-07-29T03:19:21.628Z,100.00
2022-07-29T03:21:48.965Z,100.00
2022-07-29T03:24:45.290Z,100.00
2022-07-29T03:27:14.557Z,100.00
2022-07-29T03:29:41.655Z,100.00
2022-07-29T03:32:17.130Z,100.00
2022-07-29T03:34:50.935Z,100.00
2022-07-29T03:37:20.371Z,100.00
2022-07-29T03:39:48.468Z,100.00
2022-07-29T03:42:21.160Z,100.00
2022-07-29T03:44:50.033Z,100.00
2022-07-29T03:47:20.163Z,100.00
2022-07-29T03:49:52.898Z,100.00
2022-07-29T03:52:22.493Z,100.00
2022-07-29T03:54:50.103Z,100.00
2022-07-29T03:57:17.741Z,100.00
2022-07-29T03:59:46.330Z,100.00
2022-07-29T04:02:20.180Z,100.00
2022-07-29T04:04:49.953Z,100.00
2022-07-29T04:07:22.743Z,100.00
2022-07-29T04:09:52.290Z,100.00
2022-07-29T04:12:19.578Z,100.00
2022-07-29T04:14:46.903Z,100.00
2022-07-29T04:17:13.961Z,100.00
2022-07-29T04:19:41.305Z,100.00
2022-07-29T04:22:08.482Z,100.00
2022-07-29T04:24:40.213Z,100.00
2022-07-29T04:27:12.698Z,100.00
2022-07-29T04:29:56.268Z,100.00
2022-07-29T04:32:27.704Z,100.00
2022-07-29T04:34:54.943Z,100.00
2022-07-29T04:37:24.150Z,100.00
2022-07-29T04:39:51.823Z,100.00
2022-07-29T04:42:26.685Z,100.00
2022-07-29T04:44:57.178Z,100.00
2022-07-29T04:47:24.741Z,100.00
2022-07-29T04:49:54.198Z,100.00
2022-07-29T04:52:23.780Z,100.00
2022-07-29T04:54:50.979Z,100.00
2022-07-29T04:57:20.536Z,100.00
2022-07-29T04:59:47.803Z,100.00
2022-07-29T05:02:17.246Z,100.00
2022-07-29T05:04:44.560Z,100.00
2022-07-29T05:07:15.442Z,100.00
2022-07-29T05:09:42.577Z,99.74
2022-07-29T05:12:10.967Z,99.98
2022-07-29T05:14:40.981Z,97.71
2022-07-29T05:17:08.118Z,96.93
2022-07-29T05:19:39.372Z,95.87
2022-07-29T05:22:07.702Z,88.88
2022-07-29T05:24:34.787Z,76.56
2022-07-29T05:27:01.993Z,69.42
2022-07-29T05:29:43.282Z,67.39
2022-07-29T05:32:13.508Z,66.59
2022-07-29T05:34:50.297Z,64.86
2022-07-29T05:37:26.024Z,66.15
2022-07-29T05:39:56.673Z,66.41
2022-07-29T05:42:27.694Z,68.79
2022-07-29T05:44:57.424Z,69.27
2022-07-29T05:47:25.542Z,69.56
2022-07-29T05:49:52.677Z,68.10
2022-07-29T05:52:22.301Z,72.18
2022-07-29T05:54:49.694Z,71.23
2022-07-29T05:57:21.966Z,72.22
2022-07-29T05:59:50.260Z,71.32
2022-07-29T06:02:17.618Z,72.61
2022-07-29T06:04:45.251Z,69.48
2022-07-29T06:07:12.607Z,70.95
2022-07-29T06:09:39.802Z,70.21
2022-07-29T06:12:06.949Z,68.60
2022-07-29T06:14:36.926Z,67.95
2022-07-29T06:17:03.933Z,67.99
2022-07-29T06:19:31.077Z,69.48
2022-07-29T06:21:58.750Z,67.03
2022-07-29T06:24:25.675Z,65.52
2022-07-29T06:26:52.756Z,65.88
2022-07-29T06:29:20.022Z,65.30
2022-07-29T06:31:47.097Z,64.94
2022-07-29T06:34:17.508Z,64.40
2022-07-29T06:36:45.111Z,63.39
2022-07-29T06:39:15.970Z,63.99
2022-07-29T06:41:43.234Z,63.71
2022-07-29T06:44:14.327Z,61.91
2022-07-29T06:46:42.851Z,64.05
2022-07-29T06:49:10.021Z,65.54
2022-07-29T06:51:37.363Z,63.88
2022-07-29T06:54:06.647Z,62.02
2022-07-29T06:56:39.508Z,63.69
2022-07-29T06:59:11.212Z,65.57
2022-07-29T07:01:40.236Z,64.11
2022-07-29T07:04:07.907Z,64.73
2022-07-29T07:06:35.580Z,65.71
2022-07-29T07:09:02.856Z,65.42
2022-07-29T07:11:29.915Z,65.29
2022-07-29T07:14:02.582Z,66.53
2022-07-29T07:16:30.417Z,68.56
2022-07-29T07:18:57.455Z,69.32
2022-07-29T07:21:25.075Z,70.85
2022-07-29T07:23:52.082Z,70.19
2022-07-29T07:26:21.439Z,69.73
2022-07-29T07:28:53.203Z,68.18
2022-07-29T07:31:21.167Z,69.28
2022-07-29T07:33:48.284Z,68.46
2022-07-29T07:36:15.541Z,68.08
2022-07-29T07:38:42.635Z,68.96
2022-07-29T07:41:09.569Z,70.10
2022-07-29T07:43:36.960Z,67.86
2022-07-29T07:46:04.036Z,66.54
2022-07-29T07:48:31.216Z,68.65
2022-07-29T07:51:00.726Z,67.73
2022-07-29T07:53:28.086Z,67.56
2022-07-29T07:56:12.254Z,66.83
2022-07-29T07:58:40.839Z,66.17
2022-07-29T08:01:10.795Z,63.88
2022-07-29T08:03:38.515Z,63.42
2022-07-29T08:06:06.503Z,61.13
2022-07-29T08:08:33.837Z,60.51
2022-07-29T08:11:08.340Z,60.14
2022-07-29T08:13:39.808Z,59.50
2022-07-29T08:16:16.102Z,58.31
2022-07-29T08:18:46.775Z,57.50
2022-07-29T08:21:16.093Z,57.91
2022-07-29T08:24:15.508Z,56.23
2022-07-29T08:26:44.064Z,54.16
2022-07-29T08:29:11.208Z,50.67
2022-07-29T08:31:39.132Z,47.88
2022-07-29T08:34:08.894Z,44.36
2022-07-29T08:36:36.279Z,43.72
2022-07-29T08:39:04.578Z,40.99
2022-07-29T08:41:32.457Z,41.08
2022-07-29T08:43:59.529Z,39.03
2022-07-29T08:46:26.568Z,39.79
2022-07-29T08:48:53.915Z,37.99
2022-07-29T08:51:22.314Z,37.83
2022-07-29T08:53:51.274Z,36.32
2022-07-29T08:56:20.465Z,36.71
2022-07-29T08:58:51.897Z,39.66
2022-07-29T09:01:36.511Z,40.91
2022-07-29T09:04:12.679Z,41.58
2022-07-29T09:06:45.114Z,40.07
2022-07-29T09:09:16.021Z,39.75
2022-07-29T09:11:43.698Z,40.09
2022-07-29T09:14:13.433Z,40.24
2022-07-29T09:16:53.119Z,43.12
2022-07-29T09:19:32.112Z,44.42
2022-07-29T09:22:03.702Z,46.39
2022-07-29T09:24:48.649Z,47.80
2022-07-29T09:27:23.200Z,49.42
2022-07-29T09:30:08.244Z,48.26
2022-07-29T09:32:59.280Z,47.86
2022-07-29T09:35:28.050Z,47.51
2022-07-29T09:37:55.423Z,46.81
2022-07-29T09:40:29.266Z,46.74
2022-07-29T09:42:58.308Z,47.07
2022-07-29T09:45:35.619Z,45.07
2022-07-29T09:48:23.443Z,44.56
2022-07-29T09:50:51.540Z,43.26
2022-07-29T09:53:35.508Z,42.50
2022-07-29T09:56:02.919Z,42.30
2022-07-29T09:58:30.279Z,42.01
2022-07-29T10:01:00.127Z,42.56
2022-07-29T10:03:27.533Z,44.72
2022-07-29T10:06:09.806Z,46.64
2022-07-29T10:08:37.837Z,44.18
2022-07-29T10:11:23.312Z,44.93
2022-07-29T10:13:50.462Z,44.38
2022-07-29T10:16:19.038Z,45.79
2022-07-29T10:18:48.506Z,42.09
2022-07-29T10:21:34.546Z,43.82
2022-07-29T10:24:03.596Z,44.84
2022-07-29T10:26:31.522Z,43.39
2022-07-29T10:28:58.729Z,45.31
2022-07-29T10:31:35.881Z,46.01
2022-07-29T10:34:18.683Z,45.75
2022-07-29T10:37:02.673Z,44.12
2022-07-29T10:39:45.184Z,43.42
2022-07-29T10:42:29.748Z,43.79
2022-07-29T10:45:04.835Z,44.56
2022-07-29T10:47:35.710Z,40.98
2022-07-29T10:50:06.114Z,41.28
2022-07-29T10:52:53.647Z,39.73
2022-07-29T10:55:37.653Z,39.16
2022-07-29T10:58:19.017Z,41.70
2022-07-29T11:00:56.333Z,42.89
2022-07-29T11:03:48.919Z,41.70
2022-07-29T11:06:17.997Z,40.13
2022-07-29T11:09:20.178Z,40.81
2022-07-29T11:11:51.623Z,40.53
2022-07-29T11:14:42.028Z,39.81
2022-07-29T11:17:14.022Z,39.38
2022-07-29T11:19:46.793Z,38.49
2022-07-29T11:22:34.661Z,39.34
2022-07-29T11:25:19.329Z,41.71
2022-07-29T11:28:22.949Z,42.30
2022-07-29T11:31:10.736Z,44.30
2022-07-29T11:33:56.386Z,44.34
2022-07-29T11:36:28.369Z,44.28
2022-07-29T11:39:26.689Z,44.71
2022-07-29T11:42:30.478Z,47.11
2022-07-29T11:45:43.140Z,47.01
2022-07-29T11:48:05.216Z,48.08
2022-07-29T11:50:49.331Z,49.04
2022-07-29T11:53:17.303Z,48.40
2022-07-29T11:55:58.461Z,48.98
2022-07-29T11:58:27.672Z,47.92
2022-07-29T12:00:58.090Z,47.52
2022-07-29T12:03:34.937Z,47.75
2022-07-29T12:06:15.134Z,47.72
2022-07-29T12:08:44.613Z,48.61
2022-07-29T12:11:21.877Z,49.82
2022-07-29T12:13:52.860Z,49.53
2022-07-29T12:16:25.402Z,49.70
2022-07-29T12:19:04.189Z,50.50
2022-07-29T12:21:56.967Z,52.01
2022-07-29T12:24:27.390Z,50.36
2022-07-29T12:26:59.809Z,51.24
2022-07-29T12:29:34.557Z,51.56
2022-07-29T12:32:04.190Z,51.87
2022-07-29T12:34:32.485Z,51.23
2022-07-29T12:37:00.133Z,51.10
2022-07-29T12:39:29.906Z,51.00
2022-07-29T12:41:57.564Z,51.10
2022-07-29T12:44:44.795Z,51.26
2022-07-29T12:47:14.753Z,49.94
2022-07-29T12:49:44.035Z,50.58
2022-07-29T12:52:32.903Z,51.32
2022-07-29T12:55:00.541Z,51.04
2022-07-29T12:57:28.579Z,52.12
2022-07-29T13:00:06.521Z,53.17
2022-07-29T13:02:33.809Z,53.54
2022-07-29T13:05:05.208Z,55.01
2022-07-29T13:07:53.999Z,56.56
2022-07-29T13:10:24.270Z,55.30
2022-07-29T13:13:14.828Z,56.70
2022-07-29T13:15:49.970Z,56.29
2022-07-29T13:18:29.325Z,56.36
2022-07-29T13:20:56.914Z,56.33
2022-07-29T13:23:24.288Z,56.88
2022-07-29T13:25:51.379Z,57.33
2022-07-29T13:28:18.690Z,57.63
2022-07-29T13:30:50.857Z,58.89
2022-07-29T13:33:17.974Z,58.85
2022-07-29T13:35:48.583Z,58.53
2022-07-29T13:38:15.655Z,59.15
2022-07-29T13:40:45.393Z,59.91
2022-07-29T13:43:13.301Z,61.09
2022-07-29T13:45:40.435Z,61.38
2022-07-29T13:48:09.797Z,64.12
2022-07-29T13:50:37.319Z,65.50
2022-07-29T13:53:05.106Z,67.29
2022-07-29T13:55:34.586Z,68.36
2022-07-29T13:58:02.182Z,68.98
2022-07-29T14:00:33.632Z,69.23
2022-07-29T14:03:00.849Z,69.47
2022-07-29T14:05:28.150Z,69.21
2022-07-29T14:07:55.129Z,69.60
2022-07-29T14:10:22.199Z,71.38
2022-07-29T14:12:49.417Z,73.89
2022-07-29T14:15:16.483Z,73.74
2022-07-29T14:17:43.514Z,77.05
2022-07-29T14:20:12.954Z,81.92
2022-07-29T14:22:42.704Z,86.04
2022-07-29T14:25:14.713Z,91.62
2022-07-29T14:27:44.229Z,100.00
2022-07-29T14:30:11.649Z,100.00
2022-07-29T14:32:38.695Z,100.00
2022-07-29T14:35:07.211Z,100.00
2022-07-29T14:37:39.945Z,100.00
2022-07-29T14:40:09.901Z,100.00
2022-07-29T14:42:39.982Z,100.00
2022-07-29T14:45:11.373Z,100.00
2022-07-29T14:47:39.597Z,100.00
2022-07-29T14:50:07.534Z,100.00
2022-07-29T14:52:34.942Z,100.00
2022-07-29T14:55:06.025Z,100.00
2022-07-29T14:57:45.353Z,100.00
2022-07-29T15:00:13.699Z,100.00
2022-07-29T15:03:00.977Z,100.00
2022-07-29T15:05:31.150Z,100.00
2022-07-29T15:07:59.962Z,100.00
2022-07-29T15:10:32.487Z,100.00
2022-07-29T15:13:02.272Z,100.00
2022-07-29T15:15:29.406Z,100.00
2022-07-29T15:18:00.124Z,100.00
2022-07-29T15:20:30.034Z,100.00
2022-07-29T15:22:57.470Z,100.00
2022-07-29T15:25:25.619Z,100.00
2022-07-29T15:28:00.558Z,100.00
2022-07-29T15:30:33.600Z,100.00
2022-07-29T15:33:06.394Z,100.00
2022-07-29T15:35:33.646Z,100.00
2022-07-29T15:38:08.368Z,100.00
2022-07-29T15:40:35.626Z,100.00
2022-07-29T15:43:06.735Z,100.00
2022-07-29T15:45:40.176Z,100.00
2022-07-29T15:48:14.636Z,100.00
2022-07-29T15:50:42.309Z,100.00
2022-07-29T15:53:14.057Z,100.00
2022-07-29T15:55:41.261Z,100.00
2022-07-29T15:58:11.850Z,100.00
2022-07-29T16:00:41.608Z,100.00
2022-07-29T16:03:09.235Z,100.00
2022-07-29T16:05:36.523Z,100.00
2022-07-29T16:08:04.843Z,100.00
2022-07-29T16:10:31.995Z,100.00
2022-07-29T16:12:59.353Z,100.00
2022-07-29T16:15:28.766Z,100.00
2022-07-29T16:17:58.299Z,100.00
2022-07-29T16:20:25.554Z,100.00
2022-07-29T16:22:53.545Z,100.00
2022-07-29T16:25:20.909Z,100.00
2022-07-29T16:27:48.281Z,100.00
2022-07-29T16:30:15.321Z,100.00
2022-07-29T16:32:42.380Z,100.00
2022-07-29T16:35:10.309Z,100.00
2022-07-29T16:37:38.419Z,100.00
2022-07-29T16:40:07.382Z,100.00
2022-07-29T16:42:46.902Z,100.00
2022-07-29T16:45:15.339Z,100.00
2022-07-29T16:47:42.967Z,100.00
2022-07-29T16:50:11.347Z,100.00
2022-07-29T16:52:38.511Z,100.00
2022-07-29T16:55:06.429Z,100.00
2022-07-29T16:57:34.053Z,100.00
2022-07-29T17:00:01.234Z,100.00
2022-07-29T17:02:28.990Z,100.00
2022-07-29T17:04:59.147Z,100.00
2022-07-29T17:07:26.089Z,100.00
2022-07-29T17:09:55.653Z,100.00
2022-07-29T17:12:24.775Z,100.00
2022-07-29T17:14:51.768Z,100.00
2022-07-29T17:17:20.912Z,100.00
2022-07-29T17:20:08.341Z,100.00
2022-07-29T17:22:36.446Z,100.00
2022-07-29T17:25:07.807Z,100.00
2022-07-29T17:27:38.029Z,100.00
2022-07-29T17:30:08.440Z,100.00
2022-07-29T17:32:38.891Z,100.00
2022-07-29T17:35:27.754Z,100.00
2022-07-29T17:37:55.003Z,100.00
2022-07-29T17:40:22.771Z,100.00
2022-07-29T17:42:50.369Z,100.00
2022-07-29T17:45:17.656Z,100.00
2022-07-29T17:47:45.463Z,100.00
2022-07-29T17:50:12.526Z,100.00
2022-07-29T17:52:39.626Z,100.00
2022-07-29T17:55:07.874Z,100.00
2022-07-29T17:57:34.871Z,100.00
2022-07-29T18:00:01.921Z,100.00
2022-07-29T18:02:32.047Z,100.00
2022-07-29T18:04:59.206Z,100.00
2022-07-29T18:07:26.397Z,100.00
2022-07-29T18:09:57.459Z,100.00
2022-07-29T18:12:27.359Z,100.00
2022-07-29T18:14:54.436Z,100.00
2022-07-29T18:17:35.073Z,100.00
2022-07-29T18:20:11.440Z,100.00
2022-07-29T18:22:40.619Z,100.00
2022-07-29T18:25:08.201Z,100.00
2022-07-29T18:27:35.427Z,100.00
2022-07-29T18:30:04.781Z,100.00
2022-07-29T18:32:32.195Z,100.00
2022-07-29T18:35:02.724Z,100.00
2022-07-29T18:38:01.419Z,100.00
2022-07-29T18:40:17.049Z,100.00
2022-07-29T18:42:46.544Z,100.00
2022-07-29T18:45:19.072Z,100.00
2022-07-29T18:47:49.029Z,100.00
2022-07-29T18:50:16.950Z,100.00
2022-07-29T18:52:48.433Z,100.00
2022-07-29T18:55:15.725Z,100.00
2022-07-29T18:57:56.383Z,100.00
2022-07-29T19:00:25.725Z,100.00
2022-07-29T19:02:55.285Z,100.00
2022-07-29T19:05:23.224Z,100.00
2022-07-29T19:07:50.714Z,100.00
2022-07-29T19:10:17.966Z,100.00
2022-07-29T19:12:45.328Z,100.00
2022-07-29T19:15:13.002Z,100.00
2022-07-29T19:17:48.700Z,100.00
2022-07-29T19:20:16.565Z,100.00
2022-07-29T19:22:44.015Z,100.00
2022-07-29T19:25:11.104Z,100.00
2022-07-29T19:27:38.440Z,100.00
2022-07-29T19:30:10.461Z,100.00
2022-07-29T19:32:38.133Z,100.00
2022-07-29T19:35:24.459Z,100.00
2022-07-29T19:37:55.267Z,100.00
2022-07-29T19:40:26.216Z,100.00
2022-07-29T19:42:54.431Z,100.00
2022-07-29T19:45:25.152Z,100.00
2022-07-29T19:47:55.550Z,100.00
2022-07-29T19:50:27.318Z,100.00
2022-07-29T19:52:54.810Z,100.00
2022-07-29T19:55:23.471Z,100.00
2022-07-29T19:57:53.327Z,100.00
2022-07-29T20:00:21.280Z,100.00
2022-07-29T20:02:48.706Z,100.00
2022-07-29T20:05:16.077Z,100.00
2022-07-29T20:07:43.797Z,100.00
2022-07-29T20:10:11.029Z,100.00
2022-07-29T20:12:38.413Z,100.00
2022-07-29T20:15:10.547Z,100.00
2022-07-29T20:17:45.616Z,100.00
2022-07-29T20:20:13.064Z,100.00
2022-07-29T20:22:40.036Z,100.00
2022-07-29T20:25:09.950Z,100.00
2022-07-29T20:27:39.471Z,100.00
2022-07-29T20:30:07.435Z,100.00
2022-07-29T20:32:35.263Z,100.00
2022-07-29T20:35:02.467Z,100.00
2022-07-29T20:37:29.776Z,100.00
2022-07-29T20:39:57.068Z,100.00
2022-07-29T20:42:24.239Z,100.00
2022-07-29T20:44:53.597Z,100.00
2022-07-29T20:47:22.854Z,100.00
2022-07-29T20:49:50.779Z,100.00
2022-07-29T20:52:22.063Z,100.00
2022-07-29T20:54:49.127Z,100.00
2022-07-29T20:57:16.648Z,100.00
2022-07-29T20:59:45.897Z,100.00
2022-07-29T21:02:13.137Z,100.00
2022-07-29T21:04:43.842Z,100.00
2022-07-29T21:07:11.124Z,100.00
2022-07-29T21:09:40.409Z,100.00
2022-07-29T21:12:08.212Z,100.00
2022-07-29T21:14:41.100Z,100.00
2022-07-29T21:17:08.377Z,100.00
2022-07-29T21:19:35.615Z,100.00
2022-07-29T21:22:05.921Z,100.00
2022-07-29T21:24:33.197Z,100.00
2022-07-29T21:27:21.263Z,100.00
2022-07-29T21:29:49.287Z,100.00
2022-07-29T21:32:29.983Z,100.00
2022-07-29T21:34:58.118Z,100.00
2022-07-29T21:37:25.417Z,100.00
2022-07-29T21:39:52.427Z,100.00
2022-07-29T21:42:19.621Z,100.00
2022-07-29T21:44:46.636Z,100.00
2022-07-29T21:47:13.837Z,100.00
2022-07-29T21:49:41.191Z,100.00
2022-07-29T21:52:08.255Z,100.00
2022-07-29T21:54:36.223Z,100.00
2022-07-29T21:57:04.367Z,100.00
2022-07-29T21:59:31.961Z,100.00
2022-07-29T22:02:02.689Z,100.00
2022-07-29T22:04:30.744Z,100.00
2022-07-29T22:06:58.931Z,100.00
2022-07-29T22:09:26.522Z,100.00
2022-07-29T22:11:56.232Z,100.00
2022-07-29T22:14:25.862Z,100.00
2022-07-29T22:16:52.908Z,100.00
2022-07-29T22:19:29.884Z,100.00
2022-07-29T22:21:57.331Z,100.00
2022-07-29T22:24:24.306Z,100.00
2022-07-29T22:26:51.557Z,100.00
2022-07-29T22:29:19.184Z,100.00
2022-07-29T22:31:48.495Z,100.00
2022-07-29T22:34:15.713Z,100.00
2022-07-29T22:36:43.417Z,100.00
2022-07-29T22:39:10.389Z,100.00
2022-07-29T22:41:37.622Z,100.00
2022-07-29T22:44:06.981Z,100.00
2022-07-29T22:46:36.581Z,100.00
2022-07-29T22:49:05.415Z,100.00
2022-07-29T22:51:32.801Z,100.00
2022-07-29T22:54:02.154Z,100.00
2022-07-29T22:56:29.305Z,100.00
2022-07-29T22:58:58.627Z,100.00
2022-07-29T23:01:35.998Z,100.00
2022-07-29T23:04:05.836Z,100.00
2022-07-29T23:06:33.870Z,100.00
2022-07-29T23:09:01.162Z,100.00
2022-07-29T23:11:28.314Z,100.00
2022-07-29T23:13:55.510Z,100.00
2022-07-29T23:16:26.389Z,100.00
2022-07-29T23:18:54.911Z,100.00
2022-07-29T23:21:21.962Z,100.00
2022-07-29T23:23:49.434Z,100.00
2022-07-29T23:26:17.119Z,100.00
2022-07-29T23:28:46.247Z,100.00
2022-07-29T23:31:13.678Z,100.00
2022-07-29T23:33:41.463Z,100.00
2022-07-29T23:36:11.102Z,100.00
2022-07-29T23:38:44.300Z,100.00
2022-07-29T23:41:11.631Z,100.00
2022-07-29T23:43:38.678Z,100.00
2022-07-29T23:46:06.408Z,100.00
2022-07-29T23:48:36.580Z,100.00
2022-07-29T23:51:05.674Z,100.00
2022-07-29T23:53:37.855Z,100.00
2022-07-29T23:56:20.725Z,100.00
2022-07-29T23:58:47.990Z,100.00
